createdAt,value
2017-05-13T00:14:17.311Z,76.08
2017-05-13T00:14:58.787Z,76.14
2017-05-13T00:15:40.695Z,76.52
2017-05-13T00:16:22.020Z,76.33
2017-05-13T00:17:02.436Z,76.33
2017-05-13T00:17:42.798Z,76.42
2017-05-13T00:18:23.245Z,76.23
2017-05-13T00:19:03.709Z,76.23
2017-05-13T00:19:44.104Z,76.62
2017-05-13T00:20:24.494Z,76.23
2017-05-13T00:21:04.936Z,76.52
2017-05-13T00:21:45.359Z,76.81
2017-05-13T00:22:25.754Z,76.71
2017-05-13T00:23:06.145Z,76.81
2017-05-13T00:23:46.543Z,76.71
2017-05-13T00:24:26.932Z,76.81
2017-05-13T00:25:07.435Z,77
2017-05-13T00:25:49.354Z,77.19
2017-05-13T00:26:29.791Z,77
2017-05-13T00:27:10.151Z,76.62
2017-05-13T00:27:50.577Z,76.9
2017-05-13T00:28:32.821Z,76.9
2017-05-13T00:29:14.939Z,77.09
2017-05-13T00:29:55.351Z,77
2017-05-13T00:30:35.801Z,77
2017-05-13T00:31:16.229Z,76.81
2017-05-13T00:31:58.350Z,77.19
2017-05-13T00:32:38.798Z,77.19
2017-05-13T00:33:19.968Z,77.19
2017-05-13T00:34:00.878Z,77.19
2017-05-13T00:34:42.199Z,77.19
2017-05-13T00:35:22.605Z,76.81
2017-05-13T00:36:07.201Z,76.81
2017-05-13T00:36:48.570Z,77
2017-05-13T00:37:28.971Z,77
2017-05-13T00:38:09.377Z,76.81
2017-05-13T00:38:49.757Z,76.81
2017-05-13T00:39:30.146Z,76.9
2017-05-13T00:40:10.593Z,76.81
2017-05-13T00:40:51.803Z,76.81
2017-05-13T00:41:32.854Z,76.71
2017-05-13T00:42:14.191Z,76.9
2017-05-13T00:42:57.237Z,76.71
2017-05-13T00:43:37.633Z,76.81
2017-05-13T00:44:18.050Z,76.71
2017-05-13T00:44:59.710Z,76.9
2017-05-13T00:45:40.147Z,76.9
2017-05-13T00:46:20.535Z,76.9
2017-05-13T00:47:01.507Z,76.71
2017-05-13T00:47:43.460Z,76.71
2017-05-13T00:48:23.845Z,76.81
2017-05-13T00:49:05.850Z,76.81
2017-05-13T00:49:48.213Z,76.81
2017-05-13T00:50:29.588Z,76.71
2017-05-13T00:51:10.068Z,76.81
2017-05-13T00:51:52.203Z,76.9
2017-05-13T00:52:37.367Z,77.09
2017-05-13T00:53:18.682Z,76.71
2017-05-13T00:53:59.073Z,76.81
2017-05-13T00:54:39.516Z,76.9
2017-05-13T00:55:19.970Z,77
2017-05-13T00:56:02.036Z,77.09
2017-05-13T00:56:44.217Z,77.57
2017-05-13T00:57:29.197Z,77.09
2017-05-13T00:58:12.299Z,77.48
2017-05-13T00:58:54.196Z,77.09
2017-05-13T00:59:34.630Z,77.48
2017-05-13T01:00:15.708Z,77.09
2017-05-13T01:00:56.098Z,77.28
2017-05-13T01:01:36.551Z,77.44
2017-05-13T01:02:18.714Z,77.06
2017-05-13T01:03:06.806Z,77.63
2017-05-13T01:03:49.797Z,77.67
2017-05-13T01:04:30.211Z,77.44
2017-05-13T01:05:11.491Z,77.95
2017-05-13T01:05:52.578Z,77.92
2017-05-13T01:06:33.904Z,77.95
2017-05-13T01:07:14.316Z,77.82
2017-05-13T01:07:55.399Z,77.82
2017-05-13T01:08:36.547Z,77.67
2017-05-13T01:09:17.873Z,77.86
2017-05-13T01:09:58.295Z,77.63
2017-05-13T01:10:38.711Z,77.82
2017-05-13T01:11:19.994Z,77.25
2017-05-13T01:12:00.400Z,77.38
2017-05-13T01:12:42.317Z,77.19
2017-05-13T01:13:23.545Z,77.48
2017-05-13T01:14:07.198Z,77.95
2017-05-13T01:14:47.605Z,77.44
2017-05-13T01:15:28.010Z,77.67
2017-05-13T01:16:09.208Z,77.67
2017-05-13T01:16:51.183Z,77.92
2017-05-13T01:17:31.628Z,77.63
2017-05-13T01:18:14.732Z,77.72
2017-05-13T01:18:56.995Z,77.72
2017-05-13T01:19:38.281Z,77.92
2017-05-13T01:20:19.533Z,77.72
2017-05-13T01:20:59.959Z,77.63
2017-05-13T01:21:43.707Z,77.82
2017-05-13T01:22:24.117Z,77.72
2017-05-13T01:23:06.482Z,77.63
2017-05-13T01:23:48.539Z,77.44
2017-05-13T01:24:28.979Z,77.63
2017-05-13T01:26:17.049Z,78.39
2017-05-13T01:26:57.447Z,78.2
2017-05-13T01:27:38.565Z,78.39
2017-05-13T01:28:19.744Z,78.11
2017-05-13T01:29:02.032Z,78.3
2017-05-13T01:29:42.472Z,78.2
2017-05-13T01:30:22.900Z,78.2
2017-05-13T01:31:05.092Z,78.39
2017-05-13T01:31:45.485Z,78.11
2017-05-13T01:32:26.749Z,78.39
2017-05-13T01:33:08.548Z,78.11
2017-05-13T01:33:49.727Z,78.01
2017-05-13T01:34:32.734Z,78.2
2017-05-13T01:35:13.150Z,77.82
2017-05-13T01:35:55.403Z,78.39
2017-05-13T01:36:35.752Z,78.49
2017-05-13T01:37:17.702Z,78.11
2017-05-13T01:37:58.833Z,78.11
2017-05-13T01:38:39.277Z,78.87
2017-05-13T01:39:19.690Z,78.97
2017-05-13T01:40:00.683Z,78.78
2017-05-13T01:40:42.737Z,78.68
2017-05-13T01:41:24.062Z,78.49
2017-05-13T01:42:04.451Z,78.68
2017-05-13T01:42:47.637Z,79.16
2017-05-13T01:43:31.078Z,79.16
2017-05-13T01:44:11.499Z,78.58
2017-05-13T01:44:51.908Z,79.06
2017-05-13T01:45:32.274Z,79.16
2017-05-13T01:46:14.659Z,79.25
2017-05-13T01:46:56.776Z,78.78
2017-05-13T01:47:38.834Z,78.78
2017-05-13T01:48:20.046Z,78.78
2017-05-13T01:49:00.496Z,78.49
2017-05-13T01:49:40.867Z,78.58
2017-05-13T01:50:21.337Z,78.78
2017-05-13T01:51:02.569Z,78.58
2017-05-13T01:51:45.975Z,78.58
2017-05-13T01:54:00.615Z,78.78
2017-05-13T01:54:47.381Z,79.06
2017-05-13T01:55:28.234Z,79.06
2017-05-13T01:56:09.267Z,79.06
2017-05-13T01:56:49.708Z,78.87
2017-05-13T01:57:30.899Z,78.83
2017-05-13T01:58:11.307Z,79.22
2017-05-13T01:58:51.700Z,79.25
2017-05-13T01:59:32.788Z,79.02
2017-05-13T02:00:14.755Z,79.12
2017-05-13T02:00:57.816Z,79.79
2017-05-13T02:01:40.781Z,79.22
2017-05-13T02:02:21.942Z,78.83
2017-05-13T02:03:02.850Z,79.69
2017-05-13T02:05:20.130Z,79.6
2017-05-13T02:06:01.381Z,79.6
2017-05-13T02:06:45.404Z,79.41
2017-05-13T02:07:26.913Z,79.5
2017-05-13T02:08:07.341Z,79.31
2017-05-13T02:08:47.767Z,79.5
2017-05-13T02:09:28.185Z,79.41
2017-05-13T02:10:08.620Z,79.6
2017-05-13T02:10:49.055Z,79.5
2017-05-13T02:11:33.846Z,79.88
2017-05-13T02:12:14.233Z,79.12
2017-05-13T02:12:55.583Z,79.6
2017-05-13T02:13:38.299Z,79.41
2017-05-13T02:14:20.373Z,79.41
2017-05-13T02:15:05.527Z,79.5
2017-05-13T02:15:46.630Z,79.6
2017-05-13T02:16:28.608Z,79.41
2017-05-13T02:17:13.347Z,79.5
2017-05-13T02:17:53.764Z,79.79
2017-05-13T02:18:36.032Z,79.41
2017-05-13T02:19:16.428Z,79.5
2017-05-13T02:19:56.833Z,79.6
2017-05-13T02:20:38.928Z,79.69
2017-05-13T02:21:21.258Z,79.88
2017-05-13T02:22:02.507Z,79.5
2017-05-13T02:22:44.493Z,79.6
2017-05-13T02:23:25.644Z,79.5
2017-05-13T02:24:07.296Z,79.69
2017-05-13T02:24:47.773Z,79.5
2017-05-13T02:25:28.180Z,79.98
2017-05-13T02:26:09.949Z,79.98
2017-05-13T02:26:53.921Z,80.07
2017-05-13T02:27:34.709Z,80.27
2017-05-13T02:28:17.317Z,79.98
2017-05-13T02:28:57.743Z,80.27
2017-05-13T02:29:40.027Z,79.79
2017-05-13T02:30:21.027Z,79.69
2017-05-13T02:31:03.384Z,79.79
2017-05-13T02:31:43.827Z,80.17
2017-05-13T02:32:25.932Z,80.17
2017-05-13T02:33:07.202Z,80.07
2017-05-13T02:33:47.623Z,79.79
2017-05-13T02:34:28.206Z,80.27
2017-05-13T02:35:08.781Z,80.07
2017-05-13T02:37:21.771Z,79.88
2017-05-13T02:38:03.189Z,79.69
2017-05-13T02:38:43.522Z,79.88
2017-05-13T02:39:24.247Z,79.79
2017-05-13T02:40:04.785Z,80.07
2017-05-13T02:40:45.280Z,79.88
2017-05-13T02:41:25.873Z,79.88
2017-05-13T02:42:06.288Z,80.07
2017-05-13T02:42:48.661Z,79.88
2017-05-13T02:43:29.098Z,79.98
2017-05-13T02:44:10.159Z,80.07
2017-05-13T02:44:50.778Z,79.79
2017-05-13T02:45:31.950Z,79.79
2017-05-13T02:46:12.414Z,80.07
2017-05-13T02:46:53.508Z,79.88
2017-05-13T02:47:33.967Z,79.88
2017-05-13T02:48:15.848Z,79.88
2017-05-13T02:48:56.936Z,80.07
2017-05-13T02:49:38.343Z,80.07
2017-05-13T02:50:19.571Z,80.07
2017-05-13T02:51:00.124Z,79.79
2017-05-13T02:51:40.637Z,79.98
2017-05-13T02:52:22.774Z,79.98
2017-05-13T02:53:03.245Z,79.88
2017-05-13T02:53:44.517Z,79.88
2017-05-13T02:54:24.998Z,79.98
2017-05-13T02:55:05.451Z,79.88
2017-05-13T02:55:46.453Z,80.07
2017-05-13T02:56:26.947Z,79.88
2017-05-13T02:57:07.372Z,80.07
2017-05-13T02:57:49.792Z,79.98
2017-05-13T02:58:31.007Z,79.98
2017-05-13T02:59:11.454Z,79.6
2017-05-13T02:59:51.902Z,79.5
2017-05-13T03:00:32.396Z,79.6
2017-05-13T03:01:13.973Z,79.79
2017-05-13T03:01:55.439Z,79.79
2017-05-13T03:02:36.669Z,79.98
2017-05-13T03:03:17.869Z,79.79
2017-05-13T03:04:02.880Z,79.88
2017-05-13T03:04:44.137Z,79.88
2017-05-13T03:05:25.250Z,79.79
2017-05-13T03:06:06.293Z,79.88
2017-05-13T03:06:47.287Z,80.46
2017-05-13T03:07:28.365Z,80.74
2017-05-13T03:08:08.778Z,80.84
2017-05-13T03:08:49.922Z,80.74
2017-05-13T03:09:30.384Z,80.55
2017-05-13T03:10:11.688Z,80.65
2017-05-13T03:10:52.902Z,80.46
2017-05-13T03:11:33.356Z,80.46
2017-05-13T03:12:13.773Z,80.74
2017-05-13T03:12:55.885Z,80.65
2017-05-13T03:13:36.554Z,80.74
2017-05-13T03:14:17.965Z,80.74
2017-05-13T03:14:58.441Z,80.46
2017-05-13T03:15:39.530Z,80.65
2017-05-13T03:16:20.040Z,80.65
2017-05-13T03:17:00.427Z,80.65
2017-05-13T03:17:40.822Z,80.74
2017-05-13T03:18:21.208Z,80.65
2017-05-13T03:19:04.012Z,80.93
2017-05-13T03:19:45.259Z,80.84
2017-05-13T03:20:25.645Z,80.74
2017-05-13T03:21:06.744Z,80.99
2017-05-13T03:21:50.000Z,80.84
2017-05-13T03:22:30.470Z,80.7
2017-05-13T03:23:11.616Z,80.8
2017-05-13T03:23:54.432Z,81.09
2017-05-13T03:24:35.418Z,80.93
2017-05-13T03:25:15.847Z,80.8
2017-05-13T03:25:56.257Z,81.37
2017-05-13T03:26:36.683Z,81.47
2017-05-13T03:27:17.190Z,81.56
2017-05-13T03:27:58.267Z,81.56
2017-05-13T03:28:38.690Z,81.47
2017-05-13T03:30:52.606Z,81.37
2017-05-13T03:31:33.028Z,81.18
2017-05-13T03:32:13.420Z,81.18
2017-05-13T03:32:54.712Z,81.18
2017-05-13T03:33:35.130Z,80.99
2017-05-13T03:34:15.591Z,81.37
2017-05-13T03:34:56.682Z,81.18
2017-05-13T03:35:37.077Z,81.18
2017-05-13T03:36:17.486Z,81.47
2017-05-13T03:36:57.896Z,81.27
2017-05-13T03:37:40.091Z,81.56
2017-05-13T03:38:20.521Z,81.66
2017-05-13T03:39:00.916Z,81.66
2017-05-13T03:39:41.340Z,81.76
2017-05-13T03:40:21.704Z,81.47
2017-05-13T03:41:02.164Z,81.66
2017-05-13T03:41:43.360Z,81.85
2017-05-13T03:42:24.721Z,81.85
2017-05-13T03:43:06.698Z,81.85
2017-05-13T03:45:20.887Z,81.47
2017-05-13T03:46:01.313Z,81.85
2017-05-13T03:46:43.639Z,81.95
2017-05-13T03:47:26.759Z,81.76
2017-05-13T03:48:07.818Z,81.76
2017-05-13T03:48:48.175Z,81.76
2017-05-13T03:49:29.118Z,81.85
2017-05-13T03:51:47.042Z,81.76
2017-05-13T03:53:36.393Z,82.14
2017-05-13T03:55:53.424Z,82.23
2017-05-13T03:57:43.129Z,82.32
2017-05-13T03:58:23.488Z,82.14
2017-05-13T04:01:46.455Z,82.61
2017-05-13T04:03:36.499Z,82.42
2017-05-13T04:04:17.500Z,82.42
2017-05-13T04:04:58.808Z,82.52
2017-05-13T04:05:41.523Z,82.42
2017-05-13T04:07:55.662Z,82.61
2017-05-13T04:08:36.051Z,82.52
2017-05-13T04:11:19.636Z,82.61
2017-05-13T04:12:00.525Z,82.9
2017-05-13T04:12:40.929Z,82.9
2017-05-13T04:13:22.331Z,82.9
2017-05-13T04:14:04.403Z,82.42
2017-05-13T04:14:44.869Z,82.9
2017-05-13T04:15:26.195Z,82.61
2017-05-13T04:16:06.658Z,82.61
2017-05-13T04:16:47.964Z,82.65
2017-05-13T04:17:29.311Z,82.61
2017-05-13T04:18:09.749Z,82.42
2017-05-13T04:18:50.189Z,82.61
2017-05-13T04:19:30.611Z,82.81
2017-05-13T04:20:12.017Z,83
2017-05-13T04:20:52.437Z,82.9
2017-05-13T04:21:32.872Z,82.71
2017-05-13T04:22:13.243Z,82.52
2017-05-13T04:22:53.630Z,82.75
2017-05-13T04:23:34.055Z,82.71
2017-05-13T04:24:16.198Z,82.75
2017-05-13T04:24:57.277Z,82.75
2017-05-13T04:28:43.241Z,82.84
2017-05-13T04:29:23.558Z,82.94
2017-05-13T04:30:04.876Z,82.46
2017-05-13T04:30:48.766Z,82.75
2017-05-13T04:31:30.122Z,82.56
2017-05-13T04:33:43.945Z,82.75
2017-05-13T04:34:25.018Z,82.75
2017-05-13T04:36:39.055Z,82.84
2017-05-13T04:39:00.383Z,82.84
2017-05-13T04:40:49.271Z,82.65
2017-05-13T04:41:30.481Z,82.65
2017-05-13T04:44:14.424Z,82.75
2017-05-13T04:46:02.453Z,82.79
2017-05-13T04:46:42.857Z,82.7
2017-05-13T04:49:49.230Z,82.79
2017-05-13T04:50:31.493Z,82.51
2017-05-13T04:52:20.224Z,82.7
2017-05-13T04:53:02.577Z,82.79
2017-05-13T04:53:43.773Z,82.6
2017-05-13T04:54:24.978Z,82.7
2017-05-13T04:55:06.903Z,82.89
2017-05-13T04:55:49.749Z,82.98
2017-05-13T04:56:31.658Z,82.22
2017-05-13T04:57:16.787Z,82.12
2017-05-13T04:57:57.152Z,82.22
2017-05-13T04:58:41.095Z,82.35
2017-05-13T04:59:22.362Z,82.35
2017-05-13T05:00:03.623Z,82.22
2017-05-13T05:00:44.586Z,82.17
2017-05-13T05:01:27.906Z,82.26
2017-05-13T05:03:43.822Z,82.17
2017-05-13T05:04:28.002Z,82.54
2017-05-13T05:05:09.345Z,82.64
2017-05-13T05:07:39.774Z,82.45
2017-05-13T05:09:31.855Z,82.64
2017-05-13T05:11:19.375Z,81.97
2017-05-13T05:12:15.959Z,81.92
2017-05-13T05:14:31.084Z,81.44
2017-05-13T05:16:47.128Z,81.92
2017-05-13T05:17:28.474Z,81.82
2017-05-13T05:18:11.796Z,82.01
2017-05-13T05:20:57.854Z,81.57
2017-05-13T05:21:38.370Z,81.57
2017-05-13T05:23:57.647Z,80.94
2017-05-13T05:24:38.723Z,80.66
2017-05-13T05:25:20.031Z,80.56
2017-05-13T05:26:01.379Z,81.08
2017-05-13T05:26:43.819Z,79.93
2017-05-13T05:27:24.227Z,80.22
2017-05-13T05:28:05.198Z,80.03
2017-05-13T05:28:46.989Z,80.22
2017-05-13T05:29:28.419Z,80.32
2017-05-13T05:30:10.245Z,79.78
2017-05-13T05:30:54.733Z,79.49
2017-05-13T05:31:35.152Z,79.68
2017-05-13T05:32:16.965Z,79.88
2017-05-13T05:32:58.497Z,79.88
2017-05-13T05:33:40.311Z,79.21
2017-05-13T05:34:20.714Z,79.3
2017-05-13T05:35:01.874Z,79.21
2017-05-13T05:35:42.326Z,79.21
2017-05-13T05:36:24.210Z,78.92
2017-05-13T05:37:06.754Z,78.92
2017-05-13T05:37:47.648Z,79.39
2017-05-13T05:38:30.858Z,79.21
2017-05-13T05:39:13.040Z,79.11
2017-05-13T05:39:54.884Z,79.3
2017-05-13T05:40:38.813Z,79.07
2017-05-13T05:41:19.235Z,79.16
2017-05-13T05:42:00.270Z,79.16
2017-05-13T05:42:41.449Z,79.26
2017-05-13T05:43:22.715Z,79.88
2017-05-13T05:44:03.112Z,79.97
2017-05-13T05:44:47.828Z,80.07
2017-05-13T05:45:28.861Z,80.07
2017-05-13T05:46:09.843Z,79.88
2017-05-13T05:46:52.557Z,79.88
2017-05-13T05:47:32.984Z,80.07
2017-05-13T05:48:16.734Z,79.53
2017-05-13T05:48:57.204Z,79.05
2017-05-13T05:49:37.603Z,78.96
2017-05-13T05:50:19.555Z,78.42
2017-05-13T05:51:00.747Z,78.13
2017-05-13T05:51:41.895Z,78.13
2017-05-13T05:52:23.165Z,77.75
2017-05-13T05:53:05.703Z,77.88
2017-05-13T05:53:48.848Z,77.01
2017-05-13T05:54:29.358Z,77.31
2017-05-13T05:55:09.709Z,77.59
2017-05-13T05:57:30.545Z,76.64
2017-05-13T05:58:12.602Z,77.01
2017-05-13T05:58:53.841Z,77.01
2017-05-13T05:59:36.514Z,76.54
2017-05-13T06:00:17.531Z,76.73
2017-05-13T06:00:58.628Z,76.92
2017-05-13T06:01:44.585Z,76.34
2017-05-13T06:02:25.789Z,76.54
2017-05-13T06:03:08.123Z,76.73
2017-05-13T06:03:50.097Z,76.64
2017-05-13T06:04:34.129Z,76.64
2017-05-13T06:05:14.515Z,76.54
2017-05-13T06:05:58.086Z,76.4
2017-05-13T06:06:40.205Z,76.69
2017-05-13T06:07:22.188Z,76.79
2017-05-13T06:08:02.660Z,76.98
2017-05-13T06:09:06.605Z,76.79
2017-05-13T06:09:47.716Z,76.5
2017-05-13T06:10:33.729Z,76.98
2017-05-13T06:11:15.000Z,76.98
2017-05-13T06:11:56.192Z,77.17
2017-05-13T06:12:38.215Z,77.42
2017-05-13T06:13:18.660Z,77.13
2017-05-13T06:14:01.600Z,77.23
2017-05-13T06:14:42.767Z,77.04
2017-05-13T06:15:23.209Z,76.94
2017-05-13T06:16:06.278Z,77.23
2017-05-13T06:19:55.284Z,76.94
2017-05-13T06:20:36.200Z,76.84
2017-05-13T06:21:17.469Z,76.94
2017-05-13T06:22:02.936Z,76.94
2017-05-13T06:22:46.124Z,76.84
2017-05-13T06:23:28.161Z,77.04
2017-05-13T06:24:11.222Z,77.04
2017-05-13T06:24:54.123Z,76.94
2017-05-13T06:25:37.944Z,77.13
2017-05-13T06:26:19.949Z,77.33
2017-05-13T06:28:37.529Z,77.51
2017-05-13T06:29:18.704Z,77.04
2017-05-13T06:29:59.149Z,76.46
2017-05-13T06:30:39.559Z,76.84
2017-05-13T06:31:20.001Z,76.56
2017-05-13T06:32:02.166Z,76.46
2017-05-13T06:32:45.086Z,76.37
2017-05-13T06:33:27.075Z,76.56
2017-05-13T06:34:08.434Z,77.04
2017-05-13T06:34:51.179Z,76.59
2017-05-13T06:35:32.474Z,76.21
2017-05-13T06:36:14.650Z,76.31
2017-05-13T06:36:55.073Z,75.45
2017-05-13T06:37:36.331Z,75.45
2017-05-13T06:38:18.340Z,75.92
2017-05-13T06:38:58.791Z,75.92
2017-05-13T06:39:40.065Z,75.92
2017-05-13T06:40:20.500Z,75.63
2017-05-13T06:41:01.574Z,75.63
2017-05-13T06:41:46.554Z,75.73
2017-05-13T06:42:27.005Z,75.92
2017-05-13T06:43:08.197Z,75.63
2017-05-13T06:43:48.565Z,75.15
2017-05-13T06:45:36.482Z,75.12
2017-05-13T06:46:21.364Z,75.4
2017-05-13T06:47:02.474Z,75.6
2017-05-13T06:47:42.923Z,75.7
2017-05-13T06:48:24.257Z,75.6
2017-05-13T06:49:05.337Z,75.79
2017-05-13T06:49:45.743Z,75.6
2017-05-13T06:50:26.871Z,75.6
2017-05-13T06:51:09.669Z,76.27
2017-05-13T06:51:50.138Z,76.07
2017-05-13T06:52:30.554Z,76.07
2017-05-13T06:53:11.989Z,76.75
2017-05-13T06:53:52.341Z,76.37
2017-05-13T06:54:32.760Z,76.56
2017-05-13T06:55:13.688Z,76.56
2017-05-13T06:55:54.796Z,76.56
2017-05-13T06:56:35.171Z,75.98
2017-05-13T06:57:18.525Z,76.37
2017-05-13T06:58:00.839Z,75.79
2017-05-13T06:58:41.306Z,75.5
2017-05-13T06:59:23.348Z,75.63
2017-05-13T07:00:03.753Z,75.54
2017-05-13T07:00:44.202Z,75.35
2017-05-13T07:01:25.431Z,75.15
2017-05-13T07:02:06.339Z,75.25
2017-05-13T07:02:46.776Z,75.57
2017-05-13T07:03:27.211Z,75.29
2017-05-13T07:04:07.608Z,74.81
2017-05-13T07:04:48.005Z,75
2017-05-13T07:05:28.477Z,74.43
2017-05-13T07:06:11.580Z,74.27
2017-05-13T07:06:52.668Z,74.37
2017-05-13T07:07:34.774Z,74.11
2017-05-13T07:08:15.220Z,73.44
2017-05-13T07:08:56.268Z,73.67
2017-05-13T07:09:38.528Z,72.9
2017-05-13T07:10:18.964Z,72.36
2017-05-13T07:11:00.285Z,72.26
2017-05-13T07:11:40.684Z,71.49
2017-05-13T07:12:21.933Z,71.4
2017-05-13T07:13:02.922Z,71.24
2017-05-13T07:15:16.077Z,70.31
2017-05-13T07:15:56.507Z,69.73
2017-05-13T07:16:36.913Z,69.87
2017-05-13T07:17:17.999Z,69.67
2017-05-13T07:18:00.275Z,69.19
2017-05-13T07:18:42.520Z,69.19
2017-05-13T07:19:24.573Z,69.03
2017-05-13T07:20:05.559Z,69.13
2017-05-13T07:20:46.842Z,69.35
2017-05-13T07:21:29.290Z,69.68
2017-05-13T07:22:12.271Z,70.1
2017-05-13T07:24:33.067Z,68.63
2017-05-13T07:25:13.485Z,67.34
2017-05-13T07:25:54.965Z,65.75
2017-05-13T07:26:35.512Z,64.26
2017-05-13T07:30:02.213Z,57.46
2017-05-13T07:30:43.275Z,56.45
2017-05-13T07:31:23.761Z,53.66
2017-05-13T07:32:04.956Z,53.2
2017-05-13T07:34:18.247Z,49.29
2017-05-13T07:35:01.666Z,49.31
2017-05-13T07:35:43.008Z,48.45
2017-05-13T07:36:24.042Z,48.06
2017-05-13T07:37:06.844Z,47.49
2017-05-13T07:37:50.897Z,47.22
2017-05-13T07:38:32.055Z,46.66
2017-05-13T07:40:27.424Z,44.64
2017-05-13T07:41:11.238Z,44.24
2017-05-13T07:41:52.610Z,44.3
2017-05-13T07:42:33.000Z,44.84
2017-05-13T07:43:15.258Z,45.47
2017-05-13T07:43:59.274Z,46.28
2017-05-13T07:44:39.754Z,47.19
2017-05-13T07:45:22.986Z,48.39
2017-05-13T07:46:04.266Z,49.51
2017-05-13T07:46:47.508Z,51.09
2017-05-13T07:51:43.099Z,57.14
2017-05-13T07:52:23.498Z,57.4
2017-05-13T07:53:03.926Z,57.98
2017-05-13T07:53:45.322Z,58.04
2017-05-13T07:54:25.789Z,58.14
2017-05-13T07:55:07.173Z,58.02
2017-05-13T07:55:49.170Z,57.82
2017-05-13T07:56:29.569Z,57.73
2017-05-13T07:57:09.951Z,57.82
2017-05-13T07:57:50.394Z,56.76
2017-05-13T07:58:31.752Z,56.37
2017-05-13T07:59:12.199Z,55.79
2017-05-13T08:01:10.176Z,55.87
2017-05-13T08:01:50.703Z,56.15
2017-05-13T08:02:31.097Z,56.22
2017-05-13T08:04:31.975Z,56.8
2017-05-13T08:05:13.950Z,56.87
2017-05-13T08:05:55.062Z,56.87
2017-05-13T08:06:36.420Z,56.87
2017-05-13T08:07:17.476Z,56.77
2017-05-13T08:07:58.543Z,56.58
2017-05-13T08:08:39.030Z,56.96
2017-05-13T08:09:19.422Z,56.68
2017-05-13T08:10:00.445Z,56.96
2017-05-13T08:10:40.870Z,56.46
2017-05-13T08:12:28.433Z,56.91
2017-05-13T08:13:09.693Z,56.91
2017-05-13T08:13:50.138Z,57.59
2017-05-13T08:14:30.566Z,57.49
2017-05-13T08:15:11.600Z,57.56
2017-05-13T08:15:53.668Z,57.85
2017-05-13T08:16:34.090Z,57.85
2017-05-13T08:17:15.494Z,58.23
2017-05-13T08:17:56.564Z,58.01
2017-05-13T08:18:37.019Z,58.4
2017-05-13T08:19:17.526Z,58.49
2017-05-13T08:19:57.999Z,59.07
2017-05-13T08:20:38.346Z,59.17
2017-05-13T08:21:18.821Z,59.27
2017-05-13T08:22:02.155Z,59.33
2017-05-13T08:22:42.597Z,59.33
2017-05-13T08:23:23.831Z,59.65
2017-05-13T08:24:04.261Z,59.81
2017-05-13T08:24:44.812Z,59.72
2017-05-13T08:25:25.173Z,59.52
2017-05-13T08:26:06.574Z,59.84
2017-05-13T08:26:47.022Z,59.45
2017-05-13T08:27:27.400Z,59.65
2017-05-13T08:29:25.157Z,59.07
2017-05-13T08:30:05.608Z,58.4
2017-05-13T08:30:46.069Z,58.33
2017-05-13T08:31:26.483Z,58.52
2017-05-13T08:32:06.889Z,58.62
2017-05-13T08:32:47.391Z,58.04
2017-05-13T08:33:27.895Z,58.2
2017-05-13T08:34:08.283Z,57.92
2017-05-13T08:34:48.708Z,58.11
2017-05-13T08:35:29.231Z,58.3
2017-05-13T08:36:09.680Z,58.3
2017-05-13T08:36:50.068Z,58.11
2017-05-13T08:37:30.512Z,58.69
2017-05-13T08:38:10.943Z,59.04
2017-05-13T08:38:51.371Z,59.04
2017-05-13T08:39:32.937Z,59.23
2017-05-13T08:40:13.209Z,59.43
2017-05-13T08:40:53.861Z,59.49
2017-05-13T08:41:34.323Z,59.59
2017-05-13T08:42:14.782Z,59.97
2017-05-13T08:42:55.367Z,59.85
2017-05-13T08:43:35.688Z,60.14
2017-05-13T08:44:16.126Z,60.14
2017-05-13T08:44:56.600Z,60.81
2017-05-13T08:45:37.218Z,60.91
2017-05-13T08:46:17.730Z,60.72
2017-05-13T08:46:58.935Z,60.81
2017-05-13T08:47:39.506Z,61
2017-05-13T08:48:19.808Z,61.26
2017-05-13T08:49:00.244Z,61.46
2017-05-13T08:49:40.707Z,61.07
2017-05-13T08:50:21.092Z,61.46
2017-05-13T08:51:01.512Z,61.55
2017-05-13T08:51:41.960Z,61.84
2017-05-13T08:52:22.435Z,61.84
2017-05-13T08:53:02.937Z,62.32
2017-05-13T08:53:44.121Z,61.94
2017-05-13T08:54:26.347Z,61.74
2017-05-13T08:55:06.790Z,61.55
2017-05-13T08:55:47.399Z,61.94
2017-05-13T08:56:27.798Z,61.84
2017-05-13T08:57:08.221Z,62.13
2017-05-13T08:57:48.711Z,62.32
2017-05-13T08:58:29.344Z,62.29
2017-05-13T08:59:10.202Z,62.19
2017-05-13T08:59:50.609Z,62.29
2017-05-13T09:00:31.039Z,62.61
2017-05-13T09:01:11.442Z,62.61
2017-05-13T09:01:51.856Z,62.61
2017-05-13T09:02:32.317Z,62.23
2017-05-13T09:03:12.903Z,62.32
2017-05-13T09:03:53.556Z,62.41
2017-05-13T09:04:33.901Z,61.94
2017-05-13T09:05:14.287Z,61.84
2017-05-13T09:05:54.715Z,61.97
2017-05-13T09:06:35.126Z,61.77
2017-05-13T09:07:15.575Z,61.87
2017-05-13T09:07:56.081Z,61.97
2017-05-13T09:08:37.564Z,62.06
2017-05-13T09:09:18.760Z,61.68
2017-05-13T09:09:59.185Z,61.42
2017-05-13T09:10:39.667Z,61.22
2017-05-13T09:11:20.139Z,60.75
2017-05-13T09:12:00.676Z,60.68
2017-05-13T09:12:41.281Z,60.39
2017-05-13T09:13:21.696Z,59.75
2017-05-13T09:14:02.106Z,59.17
2017-05-13T09:14:42.621Z,59.48
2017-05-13T09:15:23.072Z,59.58
2017-05-13T09:16:03.527Z,58.84
2017-05-13T09:16:43.920Z,58.29
2017-05-13T09:17:24.330Z,57.81
2017-05-13T09:18:04.760Z,57.74
2017-05-13T09:18:46.193Z,56.87
2017-05-13T09:19:27.472Z,56.77
2017-05-13T09:20:07.857Z,56.96
2017-05-13T09:20:48.425Z,56.96
2017-05-13T09:21:28.830Z,56.99
2017-05-13T09:22:09.496Z,57.16
2017-05-13T09:22:50.310Z,56.68
2017-05-13T09:23:31.845Z,56.87
2017-05-13T09:24:12.278Z,56.9
2017-05-13T09:24:52.830Z,56.9
2017-05-13T09:25:33.225Z,56.73
2017-05-13T09:26:13.632Z,56.63
2017-05-13T09:26:54.428Z,55.6
2017-05-13T09:27:35.534Z,55.34
2017-05-13T09:28:15.961Z,54.88
2017-05-13T09:28:56.383Z,54.39
2017-05-13T09:29:36.848Z,54.3
2017-05-13T09:30:17.249Z,53.91
2017-05-13T09:30:57.661Z,54.11
2017-05-13T09:31:38.202Z,54.11
2017-05-13T09:32:18.593Z,53.72
2017-05-13T09:32:59.012Z,53.33
2017-05-13T09:33:39.450Z,53.43
2017-05-13T09:34:20.758Z,53.23
2017-05-13T09:35:01.545Z,53.53
2017-05-13T09:35:42.106Z,53.53
2017-05-13T09:36:22.614Z,53.72
2017-05-13T09:37:02.988Z,54.3
2017-05-13T09:37:44.204Z,53.99
2017-05-13T09:38:24.619Z,54.27
2017-05-13T09:39:05.091Z,54.17
2017-05-13T09:39:45.510Z,54.71
2017-05-13T09:40:25.943Z,54.28
2017-05-13T09:41:07.065Z,52.81
2017-05-13T09:41:47.980Z,50.97
2017-05-13T09:42:28.887Z,48.61
2017-05-13T09:43:09.362Z,47
2017-05-13T09:43:49.785Z,45.68
2017-05-13T09:44:30.227Z,44.09
2017-05-13T09:46:28.686Z,41.15
2017-05-13T09:47:11.776Z,40.43
2017-05-13T09:47:53.578Z,38.05
2017-05-13T09:48:36.267Z,36.9
2017-05-13T09:49:18.821Z,35.66
2017-05-13T09:49:59.341Z,34.12
2017-05-13T09:50:42.100Z,33.65
2017-05-13T09:51:25.153Z,33.51
2017-05-13T09:52:07.250Z,32.46
2017-05-13T09:52:48.869Z,31.72
2017-05-13T09:53:29.830Z,31.05
2017-05-13T09:54:09.793Z,30.47
2017-05-13T09:54:50.756Z,29.5
2017-05-13T09:55:31.174Z,29.58
2017-05-13T09:56:14.133Z,29.75
2017-05-13T09:56:57.097Z,30.41
2017-05-13T09:57:37.708Z,31.07
2017-05-13T09:58:19.504Z,31.41
2017-05-13T09:58:59.936Z,32.18
2017-05-13T09:59:40.372Z,32.84
2017-05-13T10:00:23.394Z,33.51
2017-05-13T10:01:06.699Z,33.8
2017-05-13T10:01:47.135Z,33.49
2017-05-13T10:02:27.548Z,33.29
2017-05-13T10:03:08.661Z,33
2017-05-13T10:03:49.847Z,32.51
2017-05-13T10:05:48.247Z,31.78
2017-05-13T10:06:31.400Z,31.01
2017-05-13T10:07:13.341Z,30.34
2017-05-13T10:07:55.408Z,29.25
2017-05-13T10:08:35.805Z,29.06
2017-05-13T10:09:16.944Z,29.14
2017-05-13T10:09:58.809Z,29.54
2017-05-13T10:10:39.456Z,30.02
2017-05-13T10:11:20.943Z,29.62
2017-05-13T10:12:01.363Z,29.82
2017-05-13T10:12:43.993Z,29.72
2017-05-13T10:13:30.210Z,29.62
2017-05-13T10:14:12.476Z,29.62
2017-05-13T10:14:52.794Z,29.71
2017-05-13T10:15:33.417Z,29.51
2017-05-13T10:16:16.589Z,29.41
2017-05-13T10:16:58.283Z,29.41
2017-05-13T10:17:39.508Z,29.8
2017-05-13T10:18:19.926Z,29.5
2017-05-13T10:19:00.375Z,29.3
2017-05-13T10:19:40.837Z,29.28
2017-05-13T10:20:21.828Z,29.66
2017-05-13T10:21:03.370Z,30.04
2017-05-13T10:21:43.915Z,30.13
2017-05-13T10:22:27.349Z,30.11
2017-05-13T10:23:09.618Z,30.4
2017-05-13T10:23:50.719Z,30.77
2017-05-13T10:24:31.929Z,30.95
2017-05-13T10:25:13.357Z,31.05
2017-05-13T10:25:54.705Z,31.04
2017-05-13T10:28:13.265Z,30.91